Data for 02/23/2018

Time Sea-Level Adjusted Pressure Absolute Pressure Temperature Relative Humidity Dew Point   
(mb) (inHg) (mb) (inHg) (C) (F) (%) (C) (F)
00:05 1018 30.06 847 25.01 -13.6 7.4 63 -19.3 -2.7
00:10 1018 30.06 847 25.01 -13.7 7.4 63 -19.3 -2.8
00:15 1018 30.06 847 25.01 -13.7 7.4 63 -19.3 -2.8
00:20 1018 30.06 847 25.01 -13.6 7.5 63 -19.3 -2.7
00:25 1018 30.06 847 25.01 -13.7 7.4 63 -19.2 -2.6
00:30 1018 30.06 847 25.01 -13.6 7.5 64 -19.2 -2.5
00:35 1018 30.06 847 25.01 -13.6 7.5 64 -19 -2.2
00:40 1018 30.06 847 25.01 -13.6 7.6 64 -18.9 -2.1
00:45 1018 30.06 847 25.01 -13.5 7.7 64 -19 -2.1
00:50 1018 30.06 847 25.01 -13.5 7.8 64 -18.9 -2
00:55 1018 30.06 847 25.01 -13.5 7.8 64 -18.9 -2
01:00 1018 30.06 847 25.01 -13.4 7.8 64 -18.9 -2.1
01:05 1018 30.06 847 25.01 -13.4 7.8 65 -18.8 -1.8
01:10 1018 30.06 847 25.01 -13.4 7.9 64 -18.8 -1.8
01:15 1018 30.06 847 25.01 -13.4 7.8 64 -18.8 -1.9
01:20 1018 30.06 847 25.01 -13.4 7.9 64 -18.7 -1.7
01:25 1018 30.06 847 25.01 -13.4 8 64 -18.9 -1.9
01:30 1018 30.06 847 25.01 -13.3 8 63 -18.9 -2
01:35 1018 30.06 847 25.01 -13.3 8.1 64 -18.8 -1.8
01:40 1018 30.06 847 25.01 -13.3 8.1 66 -18.4 -1.1
01:45 1018 30.06 847 25.01 -13.3 8.1 68 -18.1 -0.6
01:50 1018 30.06 847 25.01 -13.3 8 69 -17.8 -0
01:55 1018 30.06 847 25.01 -13.3 8 71 -17.5 0.5
02:00 1018 30.06 847 25.01 -13.3 8.1 71 -17.4 0.7
02:05 1018 30.06 847 25.01 -13.1 8.4 70 -17.5 0.5
02:10 1018 30.06 847 25.01 -13.2 8.3 72 -17.2 1
02:15 1018 30.06 847 25.01 -13.2 8.2 72 -17.3 0.9
02:20 1018 30.06 847 25.01 -13.5 7.7 73 -17.4 0.7
02:25 1018 30.06 847 25.01 -13.5 7.7 73 -17.4 0.7
02:30 1018 30.06 847 25.01 -13.6 7.6 73 -17.4 0.7
02:35 1018 30.06 847 25.01 -13.7 7.4 74 -17.3 0.8
02:40 1018 30.06 847 25.01 -13.6 7.6 73 -17.4 0.7
02:45 1018 30.06 847 25.01 -13.6 7.6 73 -17.4 0.7
02:50 1018 30.06 847 25.01 -13.6 7.5 73 -17.4 0.7
02:55 1018 30.06 847 25.01 -13.8 7.3 75 -17.3 0.8
03:00 1018 30.06 847 25.01 -13.6 7.4 74 -17.3 0.9
03:05 1018 30.06 847 25.01 -13.8 7.2 75 -17.3 0.8
03:10 1018 30.06 847 25.01 -13.9 7.1 75 -17.3 0.8
03:15 1018 30.06 847 25.01 -13.9 6.9 76 -17.3 0.8
03:20 1018 30.06 847 25.01 -14 6.8 76 -17.3 0.8
03:25 1018 30.06 847 25.01 -14 6.9 76 -17.3 0.8
03:30 1018 30.06 847 25.01 -14.1 6.7 77 -17.2 1
03:35 1018 30.06 847 25.01 -14.1 6.6 76 -17.4 0.7
03:40 1018 30.06 848 25.04 -14.3 6.3 77 -17.5 0.5
03:45 1018 30.06 848 25.04 -14.3 6.2 77 -17.6 0.4
03:50 1018 30.06 848 25.04 -14.4 6.1 77 -17.6 0.3
03:55 1018 30.06 848 25.04 -14.5 6 77 -17.7 0.2
04:00 1019 30.09 848 25.04 -14.5 5.8 77 -17.8 0
04:05 1019 30.09 848 25.04 -14.7 5.6 77 -17.8 -0.1
04:10 1019 30.09 848 25.04 -14.8 5.4 77 -18 -0.3
04:15 1019 30.09 848 25.04 -14.9 5.1 77 -18 -0.5
04:20 1019 30.09 848 25.04 -15.1 4.7 77 -18.3 -0.9
04:25 1019 30.09 848 25.04 -15.4 4.2 78 -18.5 -1.3
04:30 1019 30.09 848 25.04 -15.7 3.7 79 -18.6 -1.5
04:35 1019 30.09 848 25.04 -16.1 3.1 80 -18.8 -1.8
04:40 1019 30.09 848 25.04 -16.2 2.8 80 -19 -2.2
04:45 1019 30.09 848 25.04 -16.4 2.4 80 -19.1 -2.4
04:50 1019 30.09 848 25.04 -16.4 2.6 82 -18.8 -1.8
04:55 1019 30.09 848 25.04 -15.9 3.3 81 -18.5 -1.4
05:00 1019 30.09 848 25.04 -16 3.1 78 -19.1 -2.3
05:05 1019 30.09 848 25.04 -16.3 2.7 81 -18.8 -1.8
05:10 1019 30.09 848 25.04 -16.2 2.9 82 -18.5 -1.4
05:15 1019 30.09 848 25.04 -16.1 3 82 -18.6 -1.4
05:20 1019 30.09 848 25.04 -16.2 2.8 82 -18.6 -1.6
05:25 1019 30.09 848 25.04 -16.3 2.6 81 -18.8 -1.8
05:30 1019 30.09 848 25.04 -16.5 2.3 82 -19 -2.1
05:35 1019 30.09 848 25.04 -16.6 2.1 82 -19 -2.2
05:40 1019 30.09 848 25.04 -16.6 2.2 83 -18.8 -1.9
05:45 1019 30.09 848 25.04 -16.4 2.5 82 -18.7 -1.7
05:50 1019 30.09 848 25.04 -16.3 2.7 82 -18.7 -1.6
05:55 1019 30.09 848 25.04 -16.2 2.8 82 -18.6 -1.6
06:00 1019 30.09 848 25.04 -16.1 3 81 -18.7 -1.6
06:05 1019 30.09 848 25.04 -16.1 3 82 -18.6 -1.4
06:10 1019 30.09 848 25.04 -16.4 2.6 82 -18.8 -1.8
06:15 1019 30.09 848 25.04 -16.5 2.3 84 -18.6 -1.5
06:20 1019 30.09 848 25.04 -16.4 2.5 85 -18.4 -1.1
06:25 1019 30.09 848 25.04 -16.3 2.6 85 -18.3 -1
06:30 1019 30.09 848 25.04 -16.5 2.4 83 -18.7 -1.6
06:35 1019 30.09 848 25.04 -16.5 2.4 82 -18.8 -1.8
06:40 1019 30.09 848 25.04 -16.2 2.9 81 -18.8 -1.8
06:45 1019 30.09 849 25.07 -15.6 4 78 -18.6 -1.5
06:50 1019 30.09 849 25.07 -14.9 5.2 76 -18.3 -1
06:55 1019 30.09 849 25.07 -14.5 5.8 74 -18.2 -0.8
07:00 1019 30.09 849 25.07 -14.2 6.5 71 -18.3 -1
07:05 1020 30.12 849 25.07 -13.9 6.9 69 -18.4 -1.1
07:10 1020 30.12 849 25.07 -13.5 7.7 66 -18.5 -1.3
07:15 1020 30.12 849 25.07 -13.5 7.8 66 -18.6 -1.5
07:20 1020 30.12 849 25.07 -13.5 7.8 66 -18.5 -1.2
07:25 1020 30.12 849 25.07 -13 8.6 65 -18.3 -1
07:30 1020 30.12 849 25.07 -12.3 9.8 62 -18.1 -0.6
07:35 1020 30.12 849 25.07 -12.9 8.8 63 -18.5 -1.2
07:40 1020 30.12 849 25.07 -13.4 7.9 67 -18.2 -0.8
07:45 1020 30.12 849 25.07 -13.4 7.9 66 -18.4 -1.2
07:50 1020 30.12 849 25.07 -13.6 7.5 68 -18.2 -0.8
07:55 1020 30.12 849 25.07 -13.5 7.8 68 -18.2 -0.8
08:00 1020 30.12 849 25.07 -13.4 8 67 -18.2 -0.7
08:05 1020 30.12 849 25.07 -13.5 7.7 69 -18.1 -0.6
08:10 1019 30.09 849 25.07 -13.1 8.5 69 -17.7 0.2
08:15 1019 30.09 849 25.07 -12.1 10.2 64 -17.5 0.5
08:20 1019 30.09 849 25.07 -11.5 11.3 62 -17.4 0.7
08:25 1019 30.09 849 25.07 -11.3 11.7 63 -17.1 1.3
08:30 1020 30.12 849 25.07 -11 12.2 61 -17.2 1.1
08:35 1020 30.12 849 25.07 -10.2 13.6 58 -17 1.3
08:40 1020 30.12 849 25.07 -9.6 14.8 57 -16.6 2.2
08:45 1019 30.09 849 25.07 -9.8 14.4 59 -16.4 2.4
08:50 1019 30.09 849 25.07 -9.2 15.4 56 -16.4 2.5
08:55 1019 30.09 849 25.07 -9.4 15.1 57 -16.5 2.3
09:00 1019 30.09 849 25.07 -9 15.9 55 -16.5 2.3
09:05 1020 30.12 849 25.07 -8.7 16.4 55 -16.2 2.8
09:10 1020 30.12 849 25.07 -8.4 16.8 54 -16.2 2.9
09:15 1020 30.12 849 25.07 -8.3 17.1 53 -16.2 2.8
09:20 1020 30.12 849 25.07 -8.4 17 53 -16.4 2.5
09:25 1020 30.12 849 25.07 -8.7 16.3 53 -16.6 2.1
09:30 1019 30.09 849 25.07 -8.5 16.7 52 -16.6 2.1
09:35 1019 30.09 849 25.07 -7.8 18 51 -16.2 2.9
09:40 1019 30.09 849 25.07 -7.9 17.9 51 -16.3 2.6
09:45 1019 30.09 849 25.07 -7.6 18.4 50 -16.2 2.8
09:50 1019 30.09 848 25.04 -7.5 18.5 51 -16 3.1
09:55 1019 30.09 848 25.04 -7 19.4 49 -16 3.3
10:00 1019 30.09 848 25.04 -7.1 19.3 49 -16.2 2.9
10:05 1019 30.09 848 25.04 -7.2 19.1 49 -16.2 2.8
10:10 1019 30.09 848 25.04 -7.3 18.8 51 -15.8 3.6
10:15 1019 30.09 848 25.04 -7.4 18.7 52 -15.6 3.9
10:20 1019 30.09 848 25.04 -6.6 20.1 49 -15.7 3.7
10:25 1019 30.09 848 25.04 -6.7 20 50 -15.5 4
10:30 1019 30.09 848 25.04 -6.4 20.4 48 -15.6 3.9
10:35 1019 30.09 848 25.04 -6.9 19.6 49 -16 3.3
10:40 1019 30.09 848 25.04 -7.3 18.8 52 -15.6 3.9
10:45 1019 30.09 848 25.04 -7 19.4 50 -15.7 3.7
10:50 1019 30.09 848 25.04 -6.3 20.6 48 -15.5 4
10:55 1019 30.09 848 25.04 -5.9 21.4 49 -14.8 5.3
11:00 1019 30.09 848 25.04 -5.5 22 48 -14.8 5.4
11:05 1019 30.09 848 25.04 -5.8 21.6 48 -15.2 4.6
11:10 1019 30.09 848 25.04 -5.9 21.3 48 -15.2 4.7
11:15 1019 30.09 848 25.04 -6.3 20.6 51 -15 5.1
11:20 1018 30.06 848 25.04 -5.9 21.4 47 -15.4 4.3
11:25 1018 30.06 848 25.04 -6 21.2 51 -14.6 5.8
11:30 1018 30.06 847 25.01 -5.9 21.4 49 -15 5.1
11:35 1018 30.06 847 25.01 -6 21.2 49 -15.2 4.6
11:40 1018 30.06 847 25.01 -6 21.2 50 -14.8 5.4
11:45 1018 30.06 847 25.01 -5.8 21.5 48 -15.2 4.7
11:50 1018 30.06 847 25.01 -5.7 21.8 49 -14.7 5.5
11:55 1018 30.06 847 25.01 -5.9 21.5 50 -14.8 5.3
12:00 1018 30.06 847 25.01 -5.7 21.7 50 -14.7 5.6
12:05 1018 30.06 847 25.01 -5.8 21.6 48 -15.1 4.8
12:10 1018 30.06 847 25.01 -5.6 22 47 -15 4.9
12:15 1018 30.06 847 25.01 -5.5 22.1 49 -14.7 5.5
12:20 1017 30.03 847 25.01 -5.4 22.3 48 -14.9 5.2
12:25 1017 30.03 847 25.01 -5 23 45 -15.2 4.7
12:30 1017 30.03 847 25.01 -4.6 23.7 46 -14.7 5.5
12:35 1017 30.03 846 24.98 -4.7 23.5 44 -15.3 4.4
12:40 1017 30.03 846 24.98 -4.6 23.8 45 -14.9 5.1
12:45 1017 30.03 846 24.98 -5.4 22.3 47 -14.9 5.1
12:50 1017 30.03 846 24.98 -5.3 22.4 44 -15.8 3.6
12:55 1017 30.03 846 24.98 -4.5 23.8 43 -15.2 4.6
13:00 1017 30.03 846 24.98 -4.2 24.5 42 -15.4 4.3
13:05 1017 30.03 846 24.98 -4.3 24.3 42 -15.2 4.6
13:10 1017 30.03 846 24.98 -4.9 23.2 44 -15.4 4.2
13:15 1017 30.03 846 24.98 -4.5 23.8 45 -14.7 5.5
13:20 1017 30.03 846 24.98 -4.8 23.4 46 -14.7 5.5
13:25 1017 30.03 846 24.98 -4.8 23.4 47 -14.6 5.7
13:30 1017 30.03 846 24.98 -4.8 23.3 45 -15 5
13:35 1017 30.03 846 24.98 -5 22.9 45 -15.2 4.7
13:40 1017 30.03 846 24.98 -4.7 23.5 48 -14.1 6.6
13:45 1016 30 846 24.98 -4.1 24.5 43 -14.9 5.2
13:50 1016 30 846 24.98 -4.1 24.5 44 -14.7 5.5
13:55 1016 30 846 24.98 -4.5 23.9 44 -15 4.9
14:00 1016 30 846 24.98 -4.6 23.7 45 -14.8 5.4
14:05 1016 30 845 24.95 -4.8 23.4 45 -14.9 5.1
14:10 1016 30 845 24.95 -5.2 22.7 48 -14.6 5.7
14:15 1016 30 845 24.95 -5.1 22.9 46 -15.1 4.9
14:20 1016 30 845 24.95 -5 23.1 45 -15.2 4.6
14:25 1016 30 845 24.95 -4.7 23.5 46 -14.7 5.6
14:30 1016 30 845 24.95 -4.6 23.7 45 -14.7 5.5
14:35 1016 30 845 24.95 -4.7 23.6 46 -14.6 5.7
14:40 1016 30 845 24.95 -4.2 24.5 43 -15.1 4.8
14:45 1016 30 845 24.95 -4.4 24 44 -14.8 5.3
14:50 1016 30 845 24.95 -4.7 23.6 46 -14.7 5.5
14:55 1016 30 845 24.95 -4.6 23.8 44 -15.1 4.7
15:00 1015 29.97 845 24.95 -4.7 23.5 45 -14.9 5.1
15:05 1015 29.97 845 24.95 -4.8 23.4 46 -14.7 5.5
15:10 1015 29.97 844 24.92 -5.1 22.8 45 -15.2 4.6
15:15 1015 29.97 844 24.92 -4.8 23.3 47 -14.6 5.8
15:20 1015 29.97 844 24.92 -5 23 47 -14.7 5.6
15:25 1015 29.97 844 24.92 -5.8 21.6 48 -15.1 4.8
15:30 1015 29.97 844 24.92 -5.4 22.2 47 -15 4.9
15:35 1015 29.97 844 24.92 -5 22.9 46 -14.9 5.2
15:40 1015 29.97 844 24.92 -5 23 46 -15 5
15:45 1015 29.97 844 24.92 -4.7 23.5 45 -15.1 4.9
15:50 1015 29.97 844 24.92 -5.1 22.8 47 -14.8 5.4
15:55 1015 29.97 844 24.92 -4.9 23.2 46 -14.9 5.1
16:00 1015 29.97 844 24.92 -5.1 22.8 47 -14.7 5.6
16:05 1015 29.97 844 24.92 -5.3 22.4 48 -14.8 5.3
16:10 1015 29.97 844 24.92 -5.4 22.2 48 -14.8 5.3
16:15 1015 29.97 844 24.92 -5.4 22.3 48 -14.8 5.4
16:20 1015 29.97 844 24.92 -5.5 22 48 -15 5.1
16:25 1015 29.97 844 24.92 -5.8 21.6 49 -14.8 5.3
16:30 1015 29.97 844 24.92 -5.9 21.4 48 -15.2 4.7
16:35 1015 29.97 844 24.92 -6.2 20.9 49 -15.1 4.8
16:40 1015 29.97 844 24.92 -6.2 20.9 50 -15.1 4.8
16:45 1015 29.97 844 24.92 -6.2 20.9 50 -15.1 4.8
16:50 1015 29.97 844 24.92 -6.4 20.4 51 -15.1 4.9
16:55 1015 29.97 844 24.92 -6.7 19.9 52 -15.1 4.8
17:00 1015 29.97 844 24.92 -7.2 19.1 54 -15 5
17:05 1015 29.97 844 24.92 -7.7 18.2 55 -15.3 4.5
17:10 1015 29.97 844 24.92 -7.9 17.9 55 -15.3 4.4
17:15 1015 29.97 844 24.92 -7.9 17.8 55 -15.4 4.3
17:20 1015 29.97 844 24.92 -8.1 17.5 56 -15.4 4.3
17:25 1015 29.97 844 24.92 -8.2 17.3 57 -15.3 4.4
17:30 1015 29.97 844 24.92 -8.6 16.6 58 -15.5 4.2
17:35 1015 29.97 844 24.92 -8.9 15.9 58 -15.7 3.8
17:40 1015 29.97 844 24.92 -9.4 15 61 -15.6 3.9
17:45 1015 29.97 844 24.92 -9.8 14.4 63 -15.6 4
17:50 1015 29.97 844 24.92 -10 14.1 64 -15.6 3.9
17:55 1015 29.97 844 24.92 -10 13.9 63 -15.8 3.5
18:00 1015 29.97 844 24.92 -9.9 14.2 62 -15.9 3.3
18:05 1015 29.97 844 24.92 -10 14.1 62 -16 3.2
18:10 1015 29.97 844 24.92 -10.3 13.5 64 -15.9 3.4
18:15 1015 29.97 844 24.92 -10.5 13.1 63 -16.3 2.6
18:20 1015 29.97 844 24.92 -10.8 12.5 67 -15.7 3.7
18:25 1015 29.97 844 24.92 -10.3 13.5 62 -16.2 2.8
18:30 1015 29.97 844 24.92 -9.8 14.3 60 -16.2 2.8
18:35 1015 29.97 844 24.92 -9.5 14.9 59 -16 3.2
18:40 1015 29.97 844 24.92 -9.9 14.1 62 -16 3.2
18:45 1015 29.97 844 24.92 -10.1 13.8 61 -16.2 2.8
18:50 1015 29.97 844 24.92 -10.4 13.3 63 -16.1 3
18:55 1015 29.97 844 24.92 -10.5 13.1 62 -16.5 2.4
19:00 1015 29.97 844 24.92 -10.1 13.9 61 -16.3 2.7
19:05 1015 29.97 844 24.92 -9.7 14.6 60 -16 3.2
19:10 1015 29.97 844 24.92 -9.5 14.9 59 -16.1 3
19:15 1015 29.97 844 24.92 -9.2 15.5 58 -16 3.1
19:20 1015 29.97 844 24.92 -8.9 16.1 56 -16.1 3
19:25 1015 29.97 844 24.92 -8.7 16.4 55 -16.2 2.9
19:30 1015 29.97 844 24.92 -8.6 16.6 55 -16.1 3.1
19:35 1015 29.97 844 24.92 -8.8 16.2 56 -16.1 3
19:40 1015 29.97 844 24.92 -8.7 16.4 56 -16 3.3
19:45 1015 29.97 844 24.92 -8.8 16.2 57 -15.9 3.4
19:50 1015 29.97 844 24.92 -8.9 16 57 -16 3.2
19:55 1015 29.97 844 24.92 -8.9 16 57 -16 3.1
20:00 1015 29.97 844 24.92 -8.8 16.2 55 -16.2 2.9
20:05 1015 29.97 844 24.92 -8.6 16.4 55 -16.2 2.9
20:10 1015 29.97 844 24.92 -8.5 16.7 55 -16 3.2
20:15 1015 29.97 844 24.92 -8.4 16.9 54 -16 3.1
20:20 1015 29.97 844 24.92 -8.4 16.9 54 -16.2 2.9
20:25 1015 29.97 844 24.92 -8.2 17.2 53 -16.2 2.9
20:30 1015 29.97 844 24.92 -8.3 17.1 55 -15.8 3.5
20:35 1015 29.97 844 24.92 -8.3 17 55 -15.9 3.3
20:40 1015 29.97 844 24.92 -8.5 16.8 56 -15.7 3.7
20:45 1015 29.97 844 24.92 -8.6 16.6 55 -16 3.2
20:50 1015 29.97 844 24.92 -8.6 16.6 56 -15.8 3.6
20:55 1014 29.94 844 24.92 -8.6 16.5 56 -15.8 3.5
21:00 1014 29.94 844 24.92 -8.6 16.5 56 -15.9 3.4
21:05 1014 29.94 844 24.92 -8.9 15.9 56 -16.2 2.8
21:10 1014 29.94 844 24.92 -9.1 15.7 55 -16.5 2.4
21:15 1014 29.94 844 24.92 -9.2 15.4 56 -16.6 2.2
21:20 1014 29.94 844 24.92 -9.2 15.5 55 -16.7 2
21:25 1014 29.94 843 24.89 -9.1 15.6 55 -16.7 2
21:30 1014 29.94 843 24.89 -9 15.7 56 -16.4 2.6
21:35 1014 29.94 843 24.89 -8.8 16.3 55 -16.3 2.7
21:40 1014 29.94 843 24.89 -8.4 16.9 53 -16.3 2.6
21:45 1014 29.94 843 24.89 -8.2 17.3 53 -16.1 3.1
21:50 1014 29.94 843 24.89 -8.2 17.2 53 -16.1 3
21:55 1014 29.94 843 24.89 -8.2 17.3 53 -16.1 3.1
22:00 1014 29.94 843 24.89 -8 17.5 53 -16.1 3
22:05 1014 29.94 843 24.89 -7.9 17.7 52 -16.1 3
22:10 1014 29.94 843 24.89 -7.8 18 52 -16.1 2.9
22:15 1014 29.94 843 24.89 -7.7 18.1 52 -15.9 3.4
22:20 1014 29.94 843 24.89 -7.9 17.9 53 -16 3.3
22:25 1014 29.94 843 24.89 -7.7 18.1 52 -15.9 3.3
22:30 1014 29.94 843 24.89 -7.8 18.1 52 -16 3.1
22:35 1014 29.94 843 24.89 -7.7 18.2 52 -16 3.3
22:40 1013 29.91 843 24.89 -7.6 18.3 50 -16.4 2.4
22:45 1013 29.91 843 24.89 -7.4 18.7 50 -16.1 3
22:50 1013 29.91 843 24.89 -7.5 18.6 51 -16 3.1
22:55 1013 29.91 843 24.89 -7.4 18.6 51 -15.9 3.5
23:00 1013 29.91 842 24.86 -7.5 18.5 52 -15.7 3.8
23:05 1013 29.91 842 24.86 -7.6 18.3 52 -15.8 3.5
23:10 1013 29.91 842 24.86 -7.6 18.3 52 -16 3.2
23:15 1013 29.91 842 24.86 -7.7 18.2 52 -16 3.3
23:20 1013 29.91 842 24.86 -7.7 18.1 52 -16 3.3
23:25 1013 29.91 842 24.86 -7.8 18 52 -16 3.1
23:30 1013 29.91 842 24.86 -7.7 18.1 52 -16 3.3
23:35 1013 29.91 842 24.86 -7.6 18.3 51 -16.2 2.9
23:40 1013 29.91 842 24.86 -7.5 18.5 50 -16.3 2.6
23:45 1013 29.91 842 24.86 -7.3 19 49 -16.2 2.8
23:50 1013 29.91 842 24.86 -7.2 19 49 -16.1 3
23:55 1013 29.91 842 24.86 -7.2 19.1 49 -16.1 3.1
24:00 1013 29.91 843 24.89 -7.2 19 51 -15.8 3.5